Time;durP1;ratioP1;P1;durP2;ratioP2;P2;SDS_P1;SDS_P2;PMS_P1;PMS_P2;Temp;Humidity;BMP_temperature;BMP_pressure;BME280_temperature;BME280_humidity;BME280_pressure;Samples;Min_cycle;Max_cycle;Signal;HPM_P1;HPM_P2
2022/06/19 00:02:01;;;;;;;19.73;3.20;;;16.60;99.90;;;;;;4978398;28;20034;-70
2022/06/19 00:04:27;;;;;;;19.52;3.72;;;16.60;99.90;;;;;;4977835;28;20068;-70
2022/06/19 00:06:56;;;;;;;21.85;3.70;;;16.50;99.90;;;;;;4977804;28;20112;-69
2022/06/19 00:09:22;;;;;;;14.68;3.08;;;16.50;99.90;;;;;;4977340;28;20041;-70
2022/06/19 00:11:48;;;;;;;18.38;3.13;;;16.50;99.90;;;;;;4977683;28;20035;-70
2022/06/19 00:14:13;;;;;;;14.40;2.72;;;16.50;99.90;;;;;;4977655;28;20172;-70
2022/06/19 00:16:39;;;;;;;13.75;3.28;;;16.50;99.90;;;;;;4977593;28;20490;-70
2022/06/19 00:19:05;;;;;;;16.00;3.20;;;16.40;99.90;;;;;;4977673;28;20037;-70
2022/06/19 00:21:31;;;;;;;13.75;2.70;;;16.40;99.90;;;;;;4977207;28;20495;-70
2022/06/19 00:23:57;;;;;;;18.10;3.60;;;16.40;99.90;;;;;;4977221;28;20514;-70
2022/06/19 00:26:22;;;;;;;20.52;4.22;;;16.40;99.90;;;;;;4977374;28;20042;-70
2022/06/19 00:28:48;;;;;;;16.83;4.18;;;16.40;99.90;;;;;;4977270;28;20042;-70
2022/06/19 00:31:14;;;;;;;20.95;3.78;;;16.30;99.90;;;;;;4961025;28;20093;-70
2022/06/19 00:33:40;;;;;;;17.40;3.45;;;16.30;99.90;;;;;;4976183;28;20045;-70
2022/06/19 00:36:06;;;;;;;20.17;3.40;;;16.30;99.90;;;;;;4976982;28;20039;-69
2022/06/19 00:38:32;;;;;;;17.20;3.10;;;16.30;99.90;;;;;;4976928;28;20042;-70
2022/06/19 00:40:59;;;;;;;18.05;4.00;;;16.20;99.90;;;;;;4976804;28;20069;-70
2022/06/19 00:43:24;;;;;;;16.23;3.42;;;16.30;99.90;;;;;;4977103;28;20132;-70
2022/06/19 00:45:51;;;;;;;17.20;3.42;;;16.30;99.90;;;;;;4977273;28;20490;-70
2022/06/19 00:48:26;;;;;;;13.57;3.00;;;16.30;99.90;;;;;;4976992;28;20038;-70
2022/06/19 00:50:53;;;;;;;17.65;3.63;;;16.30;99.90;;;;;;4960934;28;20038;-70
2022/06/19 00:53:24;;;;;;;21.50;3.72;;;16.20;99.90;;;;;;4976915;28;20073;-70
2022/06/19 00:55:51;;;;;;;15.00;3.22;;;16.30;99.90;;;;;;4976983;28;20042;-70
2022/06/19 00:58:24;;;;;;;15.07;2.88;;;16.20;99.90;;;;;;4976751;28;20049;-70
2022/06/19 01:00:54;;;;;;;16.90;3.22;;;16.30;99.90;;;;;;4976797;28;20524;-70
2022/06/19 01:03:49;;;;;;;13.48;3.05;;;16.30;99.90;;;;;;4976890;28;20117;-70
2022/06/19 01:06:15;;;;;;;15.95;2.80;;;16.30;99.90;;;;;;4960541;28;20101;-70
2022/06/19 01:08:40;;;;;;;18.40;3.53;;;16.30;99.90;;;;;;4976501;28;20042;-70
2022/06/19 01:11:07;;;;;;;16.50;2.63;;;16.30;99.90;;;;;;4976780;28;20104;-70
2022/06/19 01:13:33;;;;;;;13.77;2.88;;;16.30;99.90;;;;;;4976455;28;20054;-70
2022/06/19 01:16:01;;;;;;;15.27;3.17;;;16.30;99.90;;;;;;4994453;28;20046;-72
2022/06/19 01:18:29;;;;;;;12.88;2.25;;;16.30;99.90;;;;;;4976551;28;20114;-72
2022/06/19 01:21:00;;;;;;;13.40;2.50;;;16.30;99.90;;;;;;4976317;28;20418;-72
2022/06/19 01:23:43;;;;;;;12.98;2.30;;;16.30;99.90;;;;;;4976679;28;20047;-72
2022/06/19 01:26:13;;;;;;;10.93;2.47;;;16.30;99.90;;;;;;4976641;28;20122;-73
2022/06/19 01:28:56;;;;;;;12.55;2.00;;;16.30;99.90;;;;;;4976238;28;20084;-72
2022/06/19 01:31:32;;;;;;;14.75;2.17;;;16.30;99.90;;;;;;4976544;28;20483;-72
2022/06/19 01:34:26;;;;;;;10.35;2.15;;;16.30;99.90;;;;;;4960269;28;20082;-72
2022/06/19 01:37:06;;;;;;;7.70;2.10;;;16.30;99.90;;;;;;4976041;28;20053;-73
2022/06/19 01:39:39;;;;;;;9.15;1.90;;;16.30;99.90;;;;;;4976323;28;20078;-72
2022/06/19 01:42:05;;;;;;;9.00;1.95;;;16.30;99.90;;;;;;4976162;28;20380;-72
2022/06/19 01:44:32;;;;;;;8.80;1.88;;;16.30;99.90;;;;;;4977021;28;20085;-73
2022/06/19 01:46:59;;;;;;;9.57;1.70;;;16.30;99.90;;;;;;4980296;28;20073;-73
2022/06/19 01:49:25;;;;;;;8.48;1.95;;;16.30;99.90;;;;;;4980399;28;20038;-72
2022/06/19 01:51:52;;;;;;;12.05;2.10;;;16.20;99.90;;;;;;4980195;28;20043;-72
2022/06/19 01:54:23;;;;;;;16.17;2.65;;;16.30;99.90;;;;;;4980095;28;20035;-73
2022/06/19 01:56:51;;;;;;;13.05;2.38;;;16.20;99.90;;;;;;4979931;28;20122;-73
2022/06/19 01:59:17;;;;;;;14.40;2.63;;;16.20;99.90;;;;;;4980188;28;20034;-72
2022/06/19 02:01:43;;;;;;;13.52;2.30;;;16.20;99.90;;;;;;4979707;28;20515;-72
2022/06/19 02:04:09;;;;;;;10.80;2.20;;;16.20;99.90;;;;;;4979727;28;20502;-73
2022/06/19 02:06:40;;;;;;;12.02;2.22;;;16.20;99.90;;;;;;4979922;28;20048;-72
2022/06/19 02:09:05;;;;;;;14.48;2.50;;;16.20;99.90;;;;;;4979686;28;20042;-72
2022/06/19 02:11:34;;;;;;;10.30;2.28;;;16.20;99.90;;;;;;4979593;28;20418;-72
2022/06/19 02:14:02;;;;;;;15.55;2.17;;;16.20;99.90;;;;;;4979733;28;20572;-72
2022/06/19 02:16:28;;;;;;;12.43;2.65;;;16.20;99.90;;;;;;4979754;28;20131;-72
2022/06/19 02:18:54;;;;;;;15.05;3.08;;;16.20;99.90;;;;;;4979619;28;20480;-72
2022/06/19 02:21:34;;;;;;;13.82;2.38;;;16.10;99.90;;;;;;4979552;28;20052;-72
2022/06/19 02:24:00;;;;;;;12.95;2.67;;;16.10;99.90;;;;;;4979618;28;20053;-73
2022/06/19 02:26:26;;;;;;;15.52;2.67;;;16.10;99.90;;;;;;4979343;28;20034;-73
2022/06/19 02:28:52;;;;;;;12.43;2.38;;;16.10;99.90;;;;;;4963174;28;20049;-72
2022/06/19 02:31:20;;;;;;;13.02;2.80;;;16.10;99.90;;;;;;4963363;28;20045;-72
2022/06/19 02:33:51;;;;;;;18.55;2.85;;;16.10;99.90;;;;;;4979623;28;20048;-72
2022/06/19 02:36:38;;;;;;;14.20;2.72;;;16.10;99.90;;;;;;4979644;28;20039;-72
2022/06/19 02:39:42;;;;;;;15.20;2.80;;;16.10;99.90;;;;;;4978998;28;20050;-72
2022/06/19 02:42:19;;;;;;;;;;;16.10;99.90;;;;;;4924750;28;20112;-73
2022/06/19 02:44:48;;;;;;;12.55;2.55;;;16.00;99.90;;;;;;4979199;28;20333;-73
2022/06/19 02:47:15;;;;;;;13.55;2.50;;;16.00;99.90;;;;;;4979430;28;20096;-72
2022/06/19 02:49:40;;;;;;;11.23;2.30;;;16.10;99.90;;;;;;4962985;28;20513;-72
2022/06/19 02:52:08;;;;;;;12.93;2.60;;;16.10;99.90;;;;;;4978914;28;20046;-72
2022/06/19 02:54:34;;;;;;;15.77;2.90;;;16.10;99.90;;;;;;4978845;28;20375;-73
2022/06/19 02:57:00;;;;;;;13.98;2.88;;;16.10;99.90;;;;;;4962167;28;20073;-72
2022/06/19 02:59:26;;;;;;;16.80;2.70;;;16.10;99.90;;;;;;4978708;28;20050;-72
2022/06/19 03:01:52;;;;;;;15.00;3.00;;;16.10;99.90;;;;;;4978749;28;20061;-73
2022/06/19 03:04:33;;;;;;;14.38;3.13;;;16.10;99.90;;;;;;4978718;28;20088;-73
2022/06/19 03:06:58;;;;;;;14.43;2.53;;;16.10;99.90;;;;;;4962534;28;20053;-72
2022/06/19 03:09:24;;;;;;;12.68;2.60;;;16.00;99.90;;;;;;4978879;28;20050;-72
2022/06/19 03:11:50;;;;;;;15.93;2.63;;;16.00;99.90;;;;;;4978534;28;20495;-72
2022/06/19 03:14:16;;;;;;;13.25;2.70;;;16.00;99.90;;;;;;4978536;28;20092;-72
2022/06/19 03:16:42;;;;;;;13.85;3.33;;;16.00;99.90;;;;;;4978570;28;20525;-72
2022/06/19 03:19:08;;;;;;;14.65;2.72;;;15.90;99.90;;;;;;4979380;28;20046;-73
2022/06/19 03:21:34;;;;;;;16.92;2.72;;;15.80;99.90;;;;;;4962125;28;20050;-73
2022/06/19 03:23:59;;;;;;;18.25;2.90;;;15.80;99.90;;;;;;4978282;28;20058;-72
2022/06/19 03:26:28;;;;;;;14.60;3.42;;;15.80;99.90;;;;;;4978471;28;20038;-72
2022/06/19 03:28:54;;;;;;;15.65;3.13;;;15.80;99.90;;;;;;4978149;28;20031;-72
2022/06/19 03:31:23;;;;;;;13.75;2.60;;;15.70;99.90;;;;;;4978160;28;20108;-72
2022/06/19 03:33:49;;;;;;;13.48;2.95;;;15.70;99.90;;;;;;4978401;28;20042;-72
2022/06/19 03:36:15;;;;;;;14.45;2.65;;;15.70;99.90;;;;;;4978608;28;20129;-72
2022/06/19 03:38:41;;;;;;;14.60;2.75;;;15.70;99.90;;;;;;4977940;28;20473;-72
2022/06/19 03:41:07;;;;;;;16.67;3.00;;;15.70;99.90;;;;;;4977926;28;20057;-72
2022/06/19 03:43:33;;;;;;;14.13;3.13;;;15.60;99.90;;;;;;4977909;28;20120;-72
2022/06/19 03:46:00;;;;;;;18.17;3.65;;;15.60;99.90;;;;;;4977896;28;20042;-72
2022/06/19 03:48:26;;;;;;;15.63;2.85;;;15.60;99.90;;;;;;4977983;28;20038;-72
2022/06/19 03:50:52;;;;;;;18.90;3.42;;;15.60;99.90;;;;;;4978075;28;20042;-72
2022/06/19 03:53:18;;;;;;;17.40;3.10;;;15.60;99.90;;;;;;4961658;28;20034;-72
2022/06/19 03:55:44;;;;;;;16.85;2.85;;;15.60;99.90;;;;;;4978172;28;20196;-72
2022/06/19 03:58:10;;;;;;;13.10;2.47;;;15.60;99.90;;;;;;4977579;28;20046;-72
2022/06/19 04:00:36;;;;;;;12.98;2.55;;;15.50;99.90;;;;;;4977576;28;20096;-72
2022/06/19 04:03:01;;;;;;;15.98;3.05;;;15.50;99.90;;;;;;4977756;28;20121;-72
2022/06/19 04:05:27;;;;;;;15.05;2.80;;;15.50;99.90;;;;;;4977544;28;20034;-72
2022/06/19 04:07:52;;;;;;;16.02;2.95;;;15.40;99.90;;;;;;4977469;28;20042;-72
2022/06/19 04:10:20;;;;;;;17.13;2.75;;;15.30;99.90;;;;;;4977727;28;20110;-72
2022/06/19 04:12:45;;;;;;;15.15;2.55;;;15.30;99.90;;;;;;4977478;28;20034;-72
2022/06/19 04:15:12;;;;;;;12.43;2.72;;;15.20;99.90;;;;;;4977867;28;20039;-72
2022/06/19 04:17:38;;;;;;;17.85;3.35;;;15.20;99.90;;;;;;4977257;28;20034;-72
2022/06/19 04:20:06;;;;;;;14.77;2.80;;;15.10;99.90;;;;;;4961130;28;20051;-72
2022/06/19 04:22:33;;;;;;;14.25;2.50;;;15.20;99.90;;;;;;4977437;28;20537;-72
2022/06/19 04:24:59;;;;;;;18.73;3.40;;;15.10;99.90;;;;;;4961594;28;20380;-72
2022/06/19 04:27:24;;;;;;;15.82;2.75;;;15.10;99.90;;;;;;4977157;28;20553;-72
2022/06/19 04:29:50;;;;;;;21.90;3.38;;;15.10;99.90;;;;;;4977245;28;20046;-72
2022/06/19 04:32:15;;;;;;;15.07;2.97;;;15.10;99.90;;;;;;4977054;28;20100;-72
2022/06/19 04:34:41;;;;;;;14.98;3.58;;;15.10;99.90;;;;;;4977072;28;20038;-72
2022/06/19 04:37:07;;;;;;;14.27;2.75;;;15.00;99.90;;;;;;4977168;28;20402;-72
2022/06/19 04:39:33;;;;;;;17.02;3.10;;;15.00;99.90;;;;;;4976801;28;20085;-72
2022/06/19 04:41:59;;;;;;;11.88;2.50;;;15.00;99.90;;;;;;4976905;28;20165;-72
2022/06/19 04:44:25;;;;;;;15.75;3.15;;;15.10;99.90;;;;;;4977057;28;20410;-72
2022/06/19 04:46:51;;;;;;;13.60;2.63;;;15.10;99.90;;;;;;4960984;28;20046;-72
2022/06/19 04:49:17;;;;;;;13.93;2.80;;;15.10;99.90;;;;;;4976711;28;20038;-73
2022/06/19 04:51:43;;;;;;;13.63;2.42;;;15.20;99.90;;;;;;4976743;28;20038;-73
2022/06/19 04:54:10;;;;;;;13.30;2.13;;;15.20;99.90;;;;;;4976723;28;20042;-73
2022/06/19 04:56:36;;;;;;;13.45;2.20;;;15.20;99.90;;;;;;4976946;28;20058;-73
2022/06/19 04:59:02;;;;;;;13.18;2.25;;;15.30;99.90;;;;;;4960453;28;20577;-72
2022/06/19 05:01:30;;;;;;;8.98;1.98;;;15.30;99.90;;;;;;4976503;28;20034;-72
2022/06/19 05:03:58;;;;;;;12.50;2.95;;;15.30;99.90;;;;;;4976555;28;20549;-72
2022/06/19 05:06:25;;;;;;;13.02;2.28;;;15.40;99.90;;;;;;4976479;28;20089;-72
2022/06/19 05:08:51;;;;;;;10.93;2.47;;;15.40;99.90;;;;;;4976794;28;20077;-68
2022/06/19 05:11:17;;;;;;;13.15;2.60;;;15.40;99.90;;;;;;4976770;28;20129;-68
2022/06/19 05:13:43;;;;;;;14.77;3.13;;;15.40;99.90;;;;;;4976740;28;20092;-68
2022/06/19 05:16:15;;;;;;;15.68;2.95;;;15.50;99.90;;;;;;4993779;28;20487;-68
2022/06/19 05:18:41;;;;;;;13.50;2.95;;;15.50;99.90;;;;;;4976388;28;20458;-68
2022/06/19 05:21:07;;;;;;;13.40;2.17;;;15.50;99.90;;;;;;4976080;28;20045;-68
2022/06/19 05:23:39;;;;;;;16.20;3.15;;;15.50;99.90;;;;;;4976546;28;20038;-68
2022/06/19 05:26:12;;;;;;;15.27;3.03;;;15.50;99.90;;;;;;4976603;28;20049;-68
2022/06/19 05:28:37;;;;;;;;;;;15.40;99.90;;;;;;4976886;28;20074;-68
2022/06/19 05:31:03;;;;;;;16.15;2.65;;;15.40;99.90;;;;;;4976535;28;19968;-68
2022/06/19 05:33:31;;;;;;;18.88;2.95;;;15.30;99.90;;;;;;4976231;28;20038;-68
2022/06/19 05:35:57;;;;;;;13.07;3.03;;;15.30;99.90;;;;;;4976426;28;20057;-68
2022/06/19 05:38:24;;;;;;;11.07;2.22;;;15.30;99.90;;;;;;4976365;28;20050;-68
2022/06/19 05:40:51;;;;;;;13.75;2.42;;;15.30;99.90;;;;;;4976467;28;20527;-68
2022/06/19 05:43:18;;;;;;;14.77;2.60;;;15.20;99.90;;;;;;4976411;28;20042;-68
2022/06/19 05:45:59;;;;;;;11.60;2.17;;;15.20;99.90;;;;;;4976381;28;20073;-68
2022/06/19 05:48:25;;;;;;;12.35;2.10;;;15.10;99.90;;;;;;4976118;28;20039;-68
2022/06/19 05:51:22;;;;;;;9.60;2.10;;;15.00;99.90;;;;;;4976395;28;20046;-68
2022/06/19 05:53:55;;;;;;;9.15;2.10;;;15.10;99.90;;;;;;4899053;29;20051;-68
2022/06/19 05:56:21;;;;;;;11.65;1.80;;;15.00;99.90;;;;;;4899124;29;20048;-68
2022/06/19 05:58:47;;;;;;;8.57;1.85;;;15.00;99.90;;;;;;4883178;29;20064;-68
2022/06/19 06:01:14;;;;;;;8.13;2.08;;;15.00;99.90;;;;;;4898698;29;20137;-68
2022/06/19 06:03:42;;;;;;;9.20;2.08;;;15.10;99.90;;;;;;4898891;29;20052;-68
2022/06/19 06:06:15;;;;;;;12.60;2.13;;;15.10;99.90;;;;;;4898730;29;20052;-68
2022/06/19 06:08:40;;;;;;;9.40;1.75;;;15.10;99.90;;;;;;4914295;29;20119;-68
2022/06/19 06:11:06;;;;;;;10.63;1.73;;;15.00;99.90;;;;;;4899020;29;20192;-68
2022/06/19 06:13:32;;;;;;;11.13;2.20;;;15.00;99.90;;;;;;4898704;29;20051;-68
2022/06/19 06:15:59;;;;;;;7.65;1.70;;;15.00;99.90;;;;;;4898870;29;20051;-68
2022/06/19 06:18:25;;;;;;;9.70;2.03;;;15.00;99.90;;;;;;4898983;29;20505;-68
2022/06/19 06:20:55;;;;;;;9.68;2.22;;;15.10;99.90;;;;;;4898557;29;20127;-68
2022/06/19 06:23:22;;;;;;;11.85;2.20;;;15.00;99.90;;;;;;4883421;29;20060;-68
2022/06/19 06:25:47;;;;;;;9.38;1.80;;;15.00;99.90;;;;;;4898557;29;20036;-68
2022/06/19 06:28:14;;;;;;;9.70;1.80;;;15.00;99.90;;;;;;4898924;29;20047;-68
2022/06/19 06:30:39;;;;;;;10.18;2.22;;;15.10;99.90;;;;;;4954371;28;20105;-68
2022/06/19 06:33:05;;;;;;;11.25;2.67;;;15.10;99.90;;;;;;4978339;28;20046;-68
2022/06/19 06:35:32;;;;;;;10.52;2.13;;;15.10;99.90;;;;;;4979244;28;20049;-68
2022/06/19 06:37:59;;;;;;;12.82;2.38;;;15.10;99.90;;;;;;4980185;28;20101;-68
2022/06/19 06:40:25;;;;;;;12.82;2.80;;;15.10;99.90;;;;;;4979131;28;20576;-67
2022/06/19 06:42:51;;;;;;;10.13;2.22;;;15.10;99.90;;;;;;4979104;28;20042;-67
2022/06/19 06:45:17;;;;;;;10.57;2.42;;;15.20;99.90;;;;;;4979136;28;20038;-68
2022/06/19 06:47:43;;;;;;;13.10;2.45;;;15.20;99.90;;;;;;4979022;28;20088;-68
2022/06/19 06:50:09;;;;;;;13.43;2.35;;;15.30;99.90;;;;;;4979233;28;20046;-68
2022/06/19 06:52:35;;;;;;;15.52;2.55;;;15.30;99.90;;;;;;4978981;28;20043;-68
2022/06/19 06:55:00;;;;;;;16.50;2.80;;;15.30;99.90;;;;;;4978971;28;20053;-68
2022/06/19 06:57:26;;;;;;;13.40;2.63;;;15.30;99.90;;;;;;4979088;28;20046;-68
2022/06/19 06:59:51;;;;;;;16.60;2.60;;;15.30;99.90;;;;;;4978939;28;20065;-68
2022/06/19 07:02:17;;;;;;;16.20;2.90;;;15.30;99.90;;;;;;4978769;28;20490;-67
2022/06/19 07:04:43;;;;;;;15.23;2.75;;;15.30;99.90;;;;;;4979010;28;20054;-67
2022/06/19 07:07:08;;;;;;;14.52;2.60;;;15.30;99.90;;;;;;4962961;28;20480;-67
2022/06/19 07:09:34;;;;;;;17.98;3.10;;;15.30;99.90;;;;;;4978541;28;20417;-67
2022/06/19 07:11:59;;;;;;;13.13;3.05;;;15.30;99.90;;;;;;4978869;28;20042;-67
2022/06/19 07:14:25;;;;;;;13.60;2.30;;;15.30;99.90;;;;;;4978559;28;20121;-68
2022/06/19 07:16:50;;;;;;;18.15;2.85;;;15.30;99.90;;;;;;4978773;28;20050;-67
2022/06/19 07:19:16;;;;;;;11.40;2.38;;;15.40;99.90;;;;;;4978621;28;20048;-68
2022/06/19 07:21:41;;;;;;;18.02;3.17;;;15.40;99.90;;;;;;4978726;28;20117;-68
2022/06/19 07:24:07;;;;;;;13.88;2.53;;;15.40;99.90;;;;;;4978665;28;20045;-68
2022/06/19 07:26:33;;;;;;;14.75;2.58;;;15.40;99.90;;;;;;4978652;28;20070;-68
2022/06/19 07:28:59;;;;;;;14.98;2.53;;;15.50;99.90;;;;;;4978169;28;20069;-68
2022/06/19 07:31:25;;;;;;;16.92;3.03;;;15.40;99.90;;;;;;4978728;28;20042;-68
2022/06/19 07:33:50;;;;;;;16.80;2.90;;;15.40;99.90;;;;;;4978734;28;20514;-68
2022/06/19 07:36:22;;;;;;;13.82;2.85;;;15.40;99.90;;;;;;4978222;28;20513;-68
2022/06/19 07:38:48;;;;;;;21.40;3.17;;;15.40;99.90;;;;;;4978379;28;20038;-68
2022/06/19 07:41:14;;;;;;;16.90;2.60;;;15.40;99.90;;;;;;4977980;28;20054;-68
2022/06/19 07:43:43;;;;;;;18.30;2.75;;;15.50;99.90;;;;;;4962433;28;20100;-68
2022/06/19 07:46:09;;;;;;;14.68;2.65;;;15.50;99.90;;;;;;4978376;28;20042;-68
2022/06/19 07:51:19;;;;;;;14.30;3.00;;;15.50;99.90;;;;;;4977846;28;20050;-68
2022/06/19 07:53:45;;;;;;;18.25;2.28;;;15.50;99.90;;;;;;4978320;28;20053;-70
2022/06/19 07:56:11;;;;;;;16.50;2.95;;;15.50;99.90;;;;;;4962074;28;20494;-71
2022/06/19 07:58:37;;;;;;;19.40;2.72;;;15.50;99.90;;;;;;4977682;28;20040;-72
2022/06/19 08:01:03;;;;;;;14.23;2.65;;;15.50;99.90;;;;;;4977576;28;20038;-70
2022/06/19 08:03:29;;;;;;;12.90;2.50;;;15.50;99.90;;;;;;4978950;28;20427;-70
2022/06/19 08:05:55;;;;;;;17.27;2.90;;;15.50;99.90;;;;;;4977621;28;20562;-70
2022/06/19 08:08:27;;;;;;;16.05;2.50;;;15.50;99.90;;;;;;4977419;28;20046;-71
2022/06/19 08:10:54;;;;;;;13.23;2.53;;;15.60;99.90;;;;;;4977822;28;20402;-71
2022/06/19 08:13:26;;;;;;;16.08;2.72;;;15.50;99.90;;;;;;4977699;28;20281;-71
2022/06/19 08:15:56;;;;;;;15.15;2.50;;;15.60;99.90;;;;;;4977423;28;20050;-71
2022/06/19 08:18:21;;;;;;;15.35;2.47;;;15.60;99.90;;;;;;4977547;28;20093;-71
2022/06/19 08:20:48;;;;;;;14.80;2.78;;;15.60;99.90;;;;;;4961101;28;20446;-71
2022/06/19 08:23:14;;;;;;;17.38;3.22;;;15.70;99.90;;;;;;4994735;28;20097;-71
2022/06/19 08:25:41;;;;;;;16.25;2.72;;;15.70;99.90;;;;;;4977532;28;20141;-71
2022/06/19 08:28:07;;;;;;;12.93;2.45;;;15.80;99.90;;;;;;4977376;28;20045;-71
2022/06/19 08:30:37;;;;;;;18.13;2.70;;;15.80;99.90;;;;;;4977354;28;20050;-71
2022/06/19 08:33:04;;;;;;;14.20;2.85;;;15.80;99.90;;;;;;4977404;28;20430;-71
2022/06/19 08:35:33;;;;;;;13.75;2.38;;;15.90;99.90;;;;;;4961378;28;20061;-71
2022/06/19 08:38:04;;;;;;;12.05;2.40;;;15.90;99.90;;;;;;4977470;28;20042;-71
2022/06/19 08:40:45;;;;;;;15.18;2.80;;;15.90;99.90;;;;;;4976965;28;20042;-71
2022/06/19 08:43:20;;;;;;;20.08;2.55;;;15.90;99.90;;;;;;4977224;28;20446;-71
2022/06/19 08:45:58;;;;;;;14.07;2.40;;;15.90;99.90;;;;;;4976901;28;20088;-71
2022/06/19 08:48:46;;;;;;;18.85;2.60;;;15.90;99.90;;;;;;4977088;28;20034;-71
2022/06/19 08:51:24;;;;;;;19.17;3.22;;;16.00;99.90;;;;;;4977074;28;20129;-71
2022/06/19 08:53:52;;;;;;;14.80;2.80;;;15.90;99.90;;;;;;4960686;28;20537;-71
2022/06/19 08:56:50;;;;;;;12.98;2.10;;;15.90;99.90;;;;;;4976403;28;20096;-71
2022/06/19 08:59:40;;;;;;;16.80;2.40;;;15.90;99.90;;;;;;4971203;28;20089;-71
2022/06/19 09:02:24;;;;;;;9.80;2.22;;;15.90;99.90;;;;;;4976977;28;20068;-71
2022/06/19 09:08:24;;;;;;;13.68;2.13;;;15.90;99.90;;;;;;4976384;28;20046;-71
2022/06/19 09:11:01;;;;;;;12.52;2.25;;;15.90;99.90;;;;;;4976934;28;20046;-71
2022/06/19 09:13:28;;;;;;;10.98;2.47;;;15.80;99.90;;;;;;4976988;28;20113;-71
2022/06/19 09:16:02;;;;;;;13.30;2.53;;;15.90;99.90;;;;;;4976420;28;20128;-71
2022/06/19 09:19:04;;;;;;;11.73;2.33;;;15.90;99.90;;;;;;4976612;28;20050;-72
2022/06/19 09:22:07;;;;;;;11.38;2.33;;;16.10;99.90;;;;;;4976879;28;20077;-70
2022/06/19 09:24:51;;;;;;;12.13;2.30;;;16.10;99.90;;;;;;4975881;28;20076;-70
2022/06/19 09:27:20;;;;;;;10.63;2.20;;;16.10;99.90;;;;;;4976380;28;20093;-70
2022/06/19 09:30:02;;;;;;;13.88;2.33;;;16.20;99.90;;;;;;4976435;28;20042;-71
2022/06/19 09:32:37;;;;;;;13.50;2.35;;;16.20;99.90;;;;;;4977372;28;20482;-71
2022/06/19 09:35:12;;;;;;;11.77;2.30;;;16.30;99.90;;;;;;4976324;28;20078;-71
2022/06/19 09:37:50;;;;;;;14.65;2.08;;;16.30;99.90;;;;;;4976424;28;20130;-71
2022/06/19 09:40:31;;;;;;;13.00;2.17;;;16.40;99.90;;;;;;4976193;28;20046;-71
2022/06/19 09:43:28;;;;;;;11.85;1.77;;;16.50;99.90;;;;;;4976406;28;20042;-71
2022/06/19 09:45:59;;;;;;;12.65;2.17;;;16.50;99.90;;;;;;4976463;28;20050;-70
2022/06/19 09:48:28;;;;;;;9.25;1.85;;;16.60;99.90;;;;;;4960056;28;20070;-71
2022/06/19 09:51:09;;;;;;;10.75;2.20;;;16.70;99.90;;;;;;4976153;28;20038;-71
2022/06/19 09:53:55;;;;;;;16.40;2.30;;;16.80;99.90;;;;;;4976110;28;20042;-71
2022/06/19 09:56:45;;;;;;;11.50;2.28;;;16.90;99.90;;;;;;4976208;28;20054;-71
2022/06/19 09:59:17;;;;;;;11.13;2.03;;;17.10;99.90;;;;;;4975970;28;20201;-71
2022/06/19 10:01:44;;;;;;;10.07;2.13;;;17.20;99.90;;;;;;4959991;28;20042;-71
2022/06/19 10:04:21;;;;;;;8.02;1.90;;;17.20;99.90;;;;;;4976317;28;20066;-71
2022/06/19 10:06:51;;;;;;;13.18;2.10;;;17.30;99.90;;;;;;4978907;28;20121;-71
2022/06/19 10:09:30;;;;;;;10.43;1.95;;;17.40;99.90;;;;;;4979820;28;20533;-71
2022/06/19 10:11:59;;;;;;;11.55;1.95;;;17.50;99.90;;;;;;4979938;28;20510;-71
2022/06/19 10:14:41;;;;;;;11.40;2.17;;;17.60;99.90;;;;;;4979937;28;20042;-71
2022/06/19 10:17:27;;;;;;;8.00;2.00;;;17.70;99.90;;;;;;4979680;28;20510;-71
2022/06/19 10:20:16;;;;;;;9.18;1.60;;;17.70;99.90;;;;;;4980028;28;20111;-71
2022/06/19 10:23:00;;;;;;;7.03;1.65;;;17.80;99.90;;;;;;4963663;28;20050;-71
2022/06/19 10:25:41;;;;;;;11.88;1.63;;;17.80;99.90;;;;;;4979864;28;20537;-71
2022/06/19 10:28:25;;;;;;;11.35;1.80;;;17.90;99.90;;;;;;4979634;28;20038;-71
2022/06/19 10:31:12;;;;;;;8.95;1.52;;;17.80;99.90;;;;;;4979643;28;20057;-71
2022/06/19 10:33:53;;;;;;;8.73;1.73;;;17.80;99.90;;;;;;4979918;28;20049;-71
2022/06/19 10:36:41;;;;;;;6.95;1.42;;;17.80;99.90;;;;;;4963155;28;20042;-71
2022/06/19 10:39:26;;;;;;;10.63;2.20;;;17.80;99.90;;;;;;4962995;28;20097;-71
2022/06/19 10:42:14;;;;;;;7.35;1.63;;;17.70;99.90;;;;;;4979262;28;20411;-71
2022/06/19 10:45:05;;;;;;;9.85;2.08;;;17.80;99.90;;;;;;4979131;28;20069;-71
2022/06/19 10:47:39;;;;;;;6.45;1.30;;;17.80;99.90;;;;;;4978999;28;20125;-71
2022/06/19 10:50:33;;;;;;;8.15;1.67;;;17.80;99.90;;;;;;4979212;28;20042;-71
2022/06/19 10:53:01;;;;;;;8.40;1.58;;;17.90;99.90;;;;;;4979232;28;20054;-71
2022/06/19 10:55:30;;;;;;;7.82;1.60;;;17.90;99.90;;;;;;4978918;28;20105;-71
2022/06/19 10:58:02;;;;;;;10.77;1.80;;;18.00;99.90;;;;;;4978791;28;20105;-71
2022/06/19 11:00:28;;;;;;;13.68;1.73;;;18.00;99.90;;;;;;4978988;28;20388;-71
2022/06/19 11:05:50;;;;;;;6.45;1.60;;;18.10;99.90;;;;;;4978766;28;20137;-71
2022/06/19 11:08:18;;;;;;;9.20;1.88;;;18.10;99.90;;;;;;4979313;28;20038;-74
2022/06/19 11:10:54;;;;;;;11.05;1.77;;;18.10;99.90;;;;;;4978663;28;20101;-75
2022/06/19 11:13:20;;;;;;;7.20;1.92;;;18.00;99.90;;;;;;4979032;28;20207;-74
2022/06/19 11:16:03;;;;;;;7.82;1.50;;;17.90;99.90;;;;;;4978595;28;20538;-75
2022/06/19 11:18:29;;;;;;;6.03;1.20;;;17.80;99.90;;;;;;4978022;28;20050;-74
2022/06/19 11:21:01;;;;;;;5.53;1.20;;;17.70;99.90;;;;;;4978949;28;20048;-75
2022/06/19 11:23:37;;;;;;;7.38;1.35;;;17.70;99.90;;;;;;4978945;28;20097;-75
2022/06/19 11:26:13;;;;;;;5.35;1.20;;;17.60;99.90;;;;;;4978683;28;20049;-75
2022/06/19 11:28:56;;;;;;;5.20;1.10;;;17.40;99.90;;;;;;4978223;28;20089;-74
2022/06/19 11:31:26;;;;;;;5.88;1.00;;;17.40;99.90;;;;;;4978305;28;20042;-75
2022/06/19 11:33:56;;;;;;;8.65;1.40;;;17.30;99.90;;;;;;4978403;28;20053;-75
2022/06/19 11:36:35;;;;;;;6.20;1.15;;;17.30;99.90;;;;;;4978636;28;20057;-75
2022/06/19 11:39:32;;;;;;;7.53;1.38;;;17.20;99.90;;;;;;4978364;28;20144;-74
2022/06/19 11:41:58;;;;;;;6.47;1.23;;;17.20;99.90;;;;;;4978204;28;20502;-75
2022/06/19 11:44:23;;;;;;;6.10;1.15;;;17.10;99.90;;;;;;4978267;28;20039;-75
2022/06/19 11:46:52;;;;;;;3.92;0.90;;;17.10;99.90;;;;;;4978227;28;20138;-74
2022/06/19 11:49:22;;;;;;;4.18;1.00;;;17.10;99.90;;;;;;4977937;28;20090;-74
2022/06/19 11:51:48;;;;;;;8.20;1.38;;;17.10;99.90;;;;;;4978356;28;20050;-74
2022/06/19 11:54:15;;;;;;;5.65;1.20;;;17.10;99.90;;;;;;4977805;28;20045;-75
2022/06/19 11:56:41;;;;;;;8.55;1.00;;;17.20;99.90;;;;;;4978048;28;20060;-75
2022/06/19 11:59:26;;;;;;;6.60;1.30;;;17.20;99.90;;;;;;4961897;28;20046;-74
2022/06/19 12:01:52;;;;;;;5.47;1.08;;;17.40;99.90;;;;;;4977666;28;20042;-74
2022/06/19 12:04:32;;;;;;;6.80;1.30;;;17.50;99.90;;;;;;4977632;28;20038;-75
2022/06/19 12:07:01;;;;;;;6.03;1.45;;;17.70;99.90;;;;;;4978114;28;20060;-74
2022/06/19 12:09:35;;;;;;;5.35;1.30;;;17.70;99.90;;;;;;4977558;28;20038;-74
2022/06/19 12:12:13;;;;;;;7.78;1.25;;;17.80;99.90;;;;;;4977574;28;20046;-75
2022/06/19 12:14:59;;;;;;;4.65;1.00;;;17.90;99.90;;;;;;4977681;28;20089;-75
2022/06/19 12:17:31;;;;;;;5.28;1.15;;;18.00;99.90;;;;;;4977420;28;20088;-75
2022/06/19 12:20:01;;;;;;;6.43;1.00;;;18.00;99.90;;;;;;4961232;28;20038;-75
2022/06/19 12:22:50;;;;;;;3.53;1.05;;;18.10;99.90;;;;;;4977348;28;20129;-75
2022/06/19 12:25:28;;;;;;;4.80;1.10;;;18.30;99.90;;;;;;4977766;28;20035;-75
2022/06/19 12:28:18;;;;;;;3.20;0.77;;;18.50;99.90;;;;;;4977402;28;20034;-72
2022/06/19 12:30:50;;;;;;;5.07;1.00;;;19.10;99.90;;;;;;4960402;28;20042;-72
2022/06/19 12:33:44;;;;;;;5.05;0.90;;;19.50;99.90;;;;;;4977456;28;20057;-73
2022/06/19 12:36:13;;;;;;;3.60;0.75;;;19.60;99.90;;;;;;4900722;29;20145;-73
2022/06/19 12:38:40;;;;;;;6.57;1.05;;;19.60;99.90;;;;;;4899992;29;20052;-72
2022/06/19 12:41:26;;;;;;;4.60;0.75;;;19.50;99.90;;;;;;4899914;29;20056;-72
2022/06/19 12:44:15;;;;;;;4.93;1.20;;;19.40;99.90;;;;;;4900233;29;20048;-73
2022/06/19 12:47:02;;;;;;;5.80;1.10;;;19.50;99.90;;;;;;4899616;29;20143;-72
2022/06/19 12:49:51;;;;;;;3.60;0.90;;;19.50;99.90;;;;;;4899526;29;20389;-72
2022/06/19 12:52:31;;;;;;;4.30;0.75;;;19.40;99.90;;;;;;4872789;29;20084;-72
2022/06/19 12:55:24;;;;;;;4.57;1.00;;;19.20;99.90;;;;;;4899853;29;20054;-72
2022/06/19 12:58:12;;;;;;;3.47;0.85;;;19.10;99.90;;;;;;4899775;29;20564;-72
2022/06/19 13:00:50;;;;;;;2.97;0.70;;;19.00;99.90;;;;;;4899615;29;20138;-72
2022/06/19 13:03:42;;;;;;;6.15;1.23;;;18.80;99.90;;;;;;4883901;29;20040;-72
2022/06/19 13:06:23;;;;;;;3.37;1.00;;;18.70;99.90;;;;;;4899428;29;20549;-72
2022/06/19 13:09:16;;;;;;;5.43;0.88;;;18.60;99.90;;;;;;4899115;29;20509;-72
2022/06/19 13:12:23;;;;;;;3.97;0.85;;;18.60;99.90;;;;;;4899220;29;20130;-72